createdAt,value
2019-05-13T00:00:28.519Z,-145
2019-05-13T00:00:58.643Z,-149
2019-05-13T00:01:28.652Z,-144
2019-05-13T00:01:58.601Z,-149
2019-05-13T00:02:28.499Z,-150
2019-05-13T00:02:58.525Z,-150
2019-05-13T00:03:28.546Z,-144
2019-05-13T00:03:58.889Z,-147
2019-05-13T00:04:28.853Z,-147
2019-05-13T00:04:58.807Z,-148
2019-05-13T00:05:28.797Z,-147
2019-05-13T00:05:58.718Z,-148
2019-05-13T00:06:28.559Z,-148
2019-05-13T00:06:58.650Z,-153
2019-05-13T00:07:28.632Z,-149
2019-05-13T00:07:58.775Z,-150
2019-05-13T00:08:28.781Z,-150
2019-05-13T00:08:58.810Z,-145
2019-05-13T00:09:28.841Z,-151
2019-05-13T00:09:58.711Z,-151
2019-05-13T00:10:28.719Z,-151
2019-05-13T00:10:58.863Z,-146
2019-05-13T00:11:28.758Z,-146
2019-05-13T00:11:58.710Z,-146
2019-05-13T00:12:28.729Z,-144
2019-05-13T00:12:58.822Z,-144
2019-05-13T00:13:28.736Z,-145
2019-05-13T00:13:58.781Z,-152
2019-05-13T00:14:28.766Z,-151
2019-05-13T00:14:58.842Z,-151
2019-05-13T00:15:28.740Z,-150
2019-05-13T00:15:58.841Z,-150
2019-05-13T00:16:28.953Z,-148
2019-05-13T00:16:58.819Z,-148
2019-05-13T00:17:28.874Z,-148
2019-05-13T00:17:58.830Z,-150
2019-05-13T00:18:28.891Z,-146
2019-05-13T00:18:59.001Z,-146
2019-05-13T00:19:28.924Z,-149
2019-05-13T00:19:59.138Z,-149
2019-05-13T00:20:29.093Z,-147
2019-05-13T00:20:59.146Z,-147
2019-05-13T00:22:29.051Z,-149
2019-05-13T00:22:59.082Z,-149
2019-05-13T00:23:29.088Z,-150
2019-05-13T00:23:59.151Z,-144
2019-05-13T00:24:29.203Z,-144
2019-05-13T00:24:59.257Z,-144
2019-05-13T00:25:29.330Z,-144
2019-05-13T00:26:29.142Z,-148
2019-05-13T00:26:59.283Z,-148
2019-05-13T00:27:29.207Z,-148
2019-05-13T00:27:59.407Z,-147
2019-05-13T00:28:29.336Z,-145
2019-05-13T00:28:59.347Z,-147
2019-05-13T00:29:29.386Z,-147
2019-05-13T00:29:59.349Z,-147
2019-05-13T00:30:29.364Z,-144
2019-05-13T00:30:59.246Z,-162
2019-05-13T00:31:29.212Z,-162
2019-05-13T00:31:59.278Z,-169
2019-05-13T00:32:29.340Z,-142
2019-05-13T00:32:59.288Z,-142
2019-05-13T00:33:29.229Z,-142
2019-05-13T00:33:59.273Z,-147
2019-05-13T00:34:29.369Z,-145
2019-05-13T00:34:59.306Z,-145
2019-05-13T00:35:29.323Z,-148
2019-05-13T00:35:59.271Z,-144
2019-05-13T00:36:29.350Z,-146
2019-05-13T00:37:08.458Z,-144
2019-05-13T00:37:29.353Z,-142
2019-05-13T00:37:59.501Z,-142
2019-05-13T00:38:29.365Z,-150
2019-05-13T00:38:59.354Z,-150
2019-05-13T00:39:29.450Z,-142
2019-05-13T00:39:59.415Z,-146
2019-05-13T00:40:29.540Z,-149
2019-05-13T00:40:59.536Z,-149
2019-05-13T00:41:29.633Z,-143
2019-05-13T00:41:59.778Z,-144
2019-05-13T00:42:29.730Z,-144
2019-05-13T00:42:59.498Z,-144
2019-05-13T00:43:29.553Z,-142
2019-05-13T00:43:59.555Z,-150
2019-05-13T00:44:29.595Z,-150
2019-05-13T00:44:59.736Z,-147
2019-05-13T00:45:29.850Z,-149
2019-05-13T00:45:59.883Z,-149
2019-05-13T00:46:30.019Z,-144
2019-05-13T00:46:59.616Z,-143
2019-05-13T00:47:29.604Z,-145
2019-05-13T00:47:59.614Z,-140
2019-05-13T00:48:29.858Z,-148
2019-05-13T00:48:59.863Z,-146
2019-05-13T00:49:29.808Z,-145
2019-05-13T00:49:59.954Z,-145
2019-05-13T00:50:29.889Z,-153
2019-05-13T00:50:59.857Z,-145
2019-05-13T00:51:29.758Z,-151
2019-05-13T00:51:59.782Z,-142
2019-05-13T00:52:29.760Z,-142
2019-05-13T00:52:59.830Z,-144
2019-05-13T00:53:29.780Z,-146
2019-05-13T00:53:59.837Z,-146
2019-05-13T00:54:29.892Z,-142
2019-05-13T00:54:59.915Z,-149
2019-05-13T00:55:29.846Z,-149
2019-05-13T00:55:59.819Z,-146
2019-05-13T00:56:29.869Z,-148
2019-05-13T00:56:59.914Z,-141
2019-05-13T00:57:29.895Z,-146
2019-05-13T00:57:59.895Z,-144
2019-05-13T00:58:29.895Z,-143
2019-05-13T00:58:59.983Z,-143
2019-05-13T00:59:29.902Z,-143
2019-05-13T00:59:59.983Z,-143
2019-05-13T01:00:29.895Z,-147
2019-05-13T01:01:00.018Z,-147
2019-05-13T01:01:30.159Z,-147
2019-05-13T01:02:00.101Z,-144
2019-05-13T01:02:30.236Z,-145
2019-05-13T01:03:00.175Z,-146
2019-05-13T01:03:30.053Z,-144
2019-05-13T01:03:59.983Z,-147
2019-05-13T01:04:30.006Z,-145
2019-05-13T01:05:00.022Z,-147
2019-05-13T01:05:30.333Z,-147
2019-05-13T01:06:00.245Z,-147
2019-05-13T01:07:00.184Z,-146
2019-05-13T01:07:30.217Z,-148
2019-05-13T01:08:00.154Z,-149
2019-05-13T01:08:30.130Z,-149
2019-05-13T01:09:00.145Z,-147
2019-05-13T01:09:30.269Z,-147
2019-05-13T01:10:00.325Z,-149
2019-05-13T01:10:30.334Z,-149
2019-05-13T01:12:00.323Z,-147
2019-05-13T01:12:30.404Z,-150
2019-05-13T01:13:00.382Z,-149
2019-05-13T01:14:00.321Z,-147
2019-05-13T01:14:30.492Z,-142
2019-05-13T01:15:00.356Z,-142
2019-05-13T01:18:00.436Z,-143
2019-05-13T01:19:30.501Z,-147
2019-05-13T01:20:00.499Z,-146
2019-05-13T01:20:30.515Z,-146
2019-05-13T01:21:30.524Z,-146
2019-05-13T01:22:30.635Z,-146
2019-05-13T01:23:30.720Z,-148
2019-05-13T01:24:00.708Z,-148
2019-05-13T01:24:30.655Z,-148
2019-05-13T01:25:00.656Z,-143
2019-05-13T01:25:30.633Z,-143
2019-05-13T01:26:00.676Z,-143
2019-05-13T01:26:30.743Z,-147
2019-05-13T01:27:00.779Z,-150
2019-05-13T01:28:00.817Z,-146
2019-05-13T01:28:30.764Z,-147
2019-05-13T01:29:00.681Z,-147
2019-05-13T01:29:30.747Z,-149
2019-05-13T01:30:00.657Z,-147
2019-05-13T01:30:30.875Z,-147
2019-05-13T01:31:00.861Z,-151
2019-05-13T01:31:34.190Z,-151
2019-05-13T01:32:00.900Z,-152
2019-05-13T01:32:30.862Z,-146
2019-05-13T01:33:00.872Z,-152
2019-05-13T01:33:30.801Z,-152
2019-05-13T01:34:00.744Z,-156
2019-05-13T01:34:30.796Z,-156
2019-05-13T01:35:00.721Z,-149
2019-05-13T01:35:30.767Z,-146
2019-05-13T01:36:00.796Z,-146
2019-05-13T01:36:30.842Z,-143
2019-05-13T01:37:00.824Z,-148
2019-05-13T01:37:39.821Z,-144
2019-05-13T01:38:00.922Z,-144
2019-05-13T01:38:31.095Z,-144
2019-05-13T01:39:00.893Z,-151
2019-05-13T01:39:31.018Z,-151
2019-05-13T01:40:00.979Z,-145
2019-05-13T01:40:30.994Z,-145
2019-05-13T01:41:00.902Z,-147
2019-05-13T01:41:32.847Z,-147
2019-05-13T01:42:03.443Z,-148
2019-05-13T01:42:33.506Z,-149
2019-05-13T01:43:03.301Z,-149
2019-05-13T01:44:03.839Z,-145
2019-05-13T01:45:01.102Z,-148
2019-05-13T01:45:33.420Z,-143
2019-05-13T01:46:01.132Z,-143
2019-05-13T01:46:31.255Z,-143
2019-05-13T01:47:01.311Z,-143
2019-05-13T01:47:31.354Z,-143
2019-05-13T01:49:33.445Z,-143
2019-05-13T01:50:03.398Z,-142
2019-05-13T01:53:33.420Z,-145
2019-05-13T01:54:03.914Z,-147
2019-05-13T01:55:33.707Z,-151
2019-05-13T02:06:03.715Z,-150
2019-05-13T02:06:33.552Z,-143
2019-05-13T02:10:33.742Z,-145
2019-05-13T02:11:33.966Z,-148
2019-05-13T02:13:03.974Z,-143
2019-05-13T02:14:01.921Z,-145
2019-05-13T02:14:34.028Z,-152
2019-05-13T02:15:04.197Z,-148
2019-05-13T02:15:33.747Z,-148
2019-05-13T02:16:04.093Z,-145
2019-05-13T02:16:33.761Z,-145
2019-05-13T02:17:04.132Z,-152
2019-05-13T02:17:33.709Z,-147
2019-05-13T02:18:03.955Z,-151
2019-05-13T02:18:34.110Z,-151
2019-05-13T02:19:03.819Z,-144
2019-05-13T02:19:33.549Z,-144
2019-05-13T02:20:03.843Z,-148
2019-05-13T02:20:33.494Z,-148
2019-05-13T02:21:05.137Z,-145
2019-05-13T02:21:33.603Z,-145
2019-05-13T02:22:03.885Z,-143
2019-05-13T02:22:33.607Z,-145
2019-05-13T02:23:03.980Z,-144
2019-05-13T02:23:33.968Z,-149
2019-05-13T02:24:04.258Z,-147
2019-05-13T02:24:34.069Z,-147
2019-05-13T02:25:04.342Z,-141
2019-05-13T02:25:34.036Z,-145
2019-05-13T02:26:04.338Z,-143
2019-05-13T02:26:34.339Z,-144
2019-05-13T02:27:03.614Z,-144
2019-05-13T02:27:34.380Z,-144
2019-05-13T02:28:08.675Z,-151
2019-05-13T02:28:33.341Z,-151
2019-05-13T02:29:03.636Z,-143
2019-05-13T02:29:34.369Z,-148
2019-05-13T02:30:05.438Z,-148
2019-05-13T02:30:34.868Z,-143
2019-05-13T02:31:02.359Z,-146
2019-05-13T02:31:45.081Z,-146
2019-05-13T02:32:02.871Z,-149
2019-05-13T02:32:33.029Z,-149
2019-05-13T02:33:03.074Z,-171
2019-05-13T02:33:33.793Z,-144
2019-05-13T02:34:02.787Z,-144
2019-05-13T02:34:32.534Z,-146
2019-05-13T02:35:02.843Z,-146
2019-05-13T02:35:32.768Z,-144
2019-05-13T02:36:03.088Z,-146
2019-05-13T02:36:33.077Z,-146
2019-05-13T02:37:03.156Z,-144
2019-05-13T02:37:34.198Z,-150
2019-05-13T02:38:17.157Z,-151
2019-05-13T02:38:35.285Z,-151
2019-05-13T02:39:02.791Z,-152
2019-05-13T02:39:33.030Z,-145
2019-05-13T02:40:03.424Z,-143
2019-05-13T02:40:32.745Z,-146
2019-05-13T02:41:02.950Z,-146
2019-05-13T02:41:34.081Z,-141
2019-05-13T02:42:03.712Z,-141
2019-05-13T02:42:32.870Z,-141
2019-05-13T02:43:02.983Z,-142
2019-05-13T02:43:33.378Z,-145
2019-05-13T02:44:03.414Z,-149
2019-05-13T02:44:33.450Z,-142
2019-05-13T02:45:03.637Z,-142
2019-05-13T02:45:33.369Z,-141
2019-05-13T02:46:04.062Z,-146
2019-05-13T02:46:33.651Z,-140
2019-05-13T02:47:03.521Z,-142
2019-05-13T02:47:33.117Z,-140
2019-05-13T02:48:03.525Z,-140
2019-05-13T02:48:33.299Z,-146
2019-05-13T02:49:03.137Z,-141
2019-05-13T02:49:32.927Z,-141
2019-05-13T02:50:04.936Z,-149
2019-05-13T02:50:33.699Z,-149
2019-05-13T02:51:03.605Z,-140
2019-05-13T02:51:32.877Z,-140
2019-05-13T02:52:03.320Z,-149
2019-05-13T02:52:33.546Z,-149
2019-05-13T02:53:02.898Z,-144
2019-05-13T02:53:33.676Z,-144
2019-05-13T02:54:03.672Z,-142
2019-05-13T02:54:34.012Z,-147
2019-05-13T02:55:03.877Z,-141
2019-05-13T02:55:33.106Z,-141
2019-05-13T02:56:03.257Z,-139
2019-05-13T02:56:33.225Z,-146
2019-05-13T02:57:03.602Z,-145
2019-05-13T02:57:33.068Z,-141
2019-05-13T02:58:03.404Z,-143
2019-05-13T02:58:33.491Z,-143
2019-05-13T02:59:03.762Z,-144
2019-05-13T02:59:33.738Z,-144
2019-05-13T03:00:04.021Z,-143
2019-05-13T03:00:33.054Z,-145
2019-05-13T03:01:03.413Z,-144
2019-05-13T03:01:33.367Z,-142
2019-05-13T03:02:03.755Z,-148
2019-05-13T03:02:33.000Z,-148
2019-05-13T03:03:03.346Z,-143
2019-05-13T03:03:33.151Z,-148
2019-05-13T03:04:03.426Z,-146
2019-05-13T03:04:33.007Z,-140
2019-05-13T03:05:03.439Z,-145
2019-05-13T03:05:33.214Z,-142
2019-05-13T03:06:03.403Z,-142
2019-05-13T03:07:33.555Z,-143
2019-05-13T03:08:03.618Z,-143
2019-05-13T03:08:40.710Z,-140
2019-05-13T03:09:03.354Z,-147
2019-05-13T03:09:33.451Z,-147
2019-05-13T03:11:03.517Z,-141
2019-05-13T03:11:33.425Z,-141
2019-05-13T03:12:04.240Z,-140
2019-05-13T03:12:33.377Z,-142
2019-05-13T03:13:03.648Z,-141
2019-05-13T03:13:33.435Z,-142
2019-05-13T03:14:03.921Z,-146
2019-05-13T03:14:33.534Z,-146
2019-05-13T03:15:03.602Z,-142
2019-05-13T03:15:33.733Z,-142
2019-05-13T03:16:03.509Z,-140
2019-05-13T03:16:33.431Z,-140
2019-05-13T03:17:03.647Z,-144
2019-05-13T03:17:33.373Z,-140
2019-05-13T03:18:03.579Z,-143
2019-05-13T03:18:33.735Z,-143
2019-05-13T03:19:03.384Z,-145
2019-05-13T03:19:33.495Z,-144
2019-05-13T03:20:04.217Z,-145
2019-05-13T03:20:33.633Z,-143
2019-05-13T03:21:03.684Z,-149
2019-05-13T03:21:33.601Z,-141
2019-05-13T03:22:03.527Z,-141
2019-05-13T03:22:33.482Z,-148
2019-05-13T03:23:03.613Z,-149
2019-05-13T03:23:33.546Z,-148
2019-05-13T03:24:03.957Z,-148
2019-05-13T03:24:33.575Z,-142
2019-05-13T03:25:03.490Z,-144
2019-05-13T03:25:33.576Z,-144
2019-05-13T03:26:03.619Z,-144
2019-05-13T03:26:33.775Z,-144
2019-05-13T03:27:34.143Z,-147
2019-05-13T03:28:03.852Z,-147
2019-05-13T03:28:34.030Z,-138
2019-05-13T03:29:03.671Z,-142
2019-05-13T03:29:33.661Z,-142
2019-05-13T03:30:04.439Z,-142
2019-05-13T03:30:35.530Z,-142
2019-05-13T03:31:06.122Z,-140
2019-05-13T03:31:35.719Z,-140
2019-05-13T03:32:06.273Z,-140
2019-05-13T03:32:42.053Z,-144
2019-05-13T03:33:10.641Z,-142
2019-05-13T03:33:36.568Z,-142
2019-05-13T03:34:06.277Z,-140
2019-05-13T03:34:35.748Z,-140
2019-05-13T03:35:06.991Z,-145
2019-05-13T03:35:36.407Z,-143
2019-05-13T03:36:06.197Z,-143
2019-05-13T03:36:36.151Z,-146
2019-05-13T03:37:06.233Z,-145
2019-05-13T03:37:34.764Z,-143
2019-05-13T03:38:03.973Z,-140
2019-05-13T03:38:45.739Z,-143
2019-05-13T03:39:09.656Z,-143
2019-05-13T03:39:33.840Z,-140
2019-05-13T03:40:03.981Z,-145
2019-05-13T03:40:33.842Z,-145
2019-05-13T03:41:03.892Z,-139
2019-05-13T03:41:33.931Z,-142
2019-05-13T03:42:03.891Z,-142
2019-05-13T03:42:33.881Z,-143
2019-05-13T03:43:03.925Z,-147
2019-05-13T03:43:33.999Z,-147
2019-05-13T03:44:04.085Z,-145
2019-05-13T03:44:34.015Z,-145
2019-05-13T03:45:04.052Z,-145
2019-05-13T03:45:34.062Z,-142
2019-05-13T03:46:03.977Z,-139
2019-05-13T03:46:34.089Z,-140
2019-05-13T03:47:04.277Z,-140
2019-05-13T03:47:34.159Z,-147
2019-05-13T03:48:04.513Z,-146
2019-05-13T03:48:34.251Z,-146
2019-05-13T03:49:04.456Z,-143
2019-05-13T03:49:34.084Z,-143
2019-05-13T03:50:04.190Z,-146
2019-05-13T03:50:34.516Z,-147
2019-05-13T03:51:04.367Z,-147
2019-05-13T03:51:34.304Z,-147
2019-05-13T03:52:04.353Z,-143
2019-05-13T03:52:34.488Z,-143
2019-05-13T03:53:04.540Z,-148
2019-05-13T03:53:34.368Z,-148
2019-05-13T03:54:04.375Z,-141
2019-05-13T03:54:34.350Z,-145
2019-05-13T03:55:04.323Z,-142
2019-05-13T03:55:34.670Z,-142
2019-05-13T03:56:04.462Z,-144
2019-05-13T03:56:34.471Z,-141
2019-05-13T03:57:04.592Z,-142
2019-05-13T03:57:34.453Z,-142
2019-05-13T03:58:04.470Z,-142
2019-05-13T03:58:34.477Z,-149
2019-05-13T03:59:04.466Z,-149
2019-05-13T03:59:34.694Z,-146
2019-05-13T04:00:04.463Z,-147
2019-05-13T04:00:34.593Z,-147
2019-05-13T04:01:04.497Z,-132
2019-05-13T04:01:34.582Z,-134
2019-05-13T04:02:04.562Z,-130
2019-05-13T04:02:34.561Z,-130
2019-05-13T04:03:04.558Z,-140
2019-05-13T04:03:34.543Z,-138
2019-05-13T04:04:04.617Z,-135
2019-05-13T04:04:34.544Z,-135
2019-05-13T04:05:04.746Z,-130
2019-05-13T04:05:34.807Z,-128
2019-05-13T04:06:04.797Z,-128
2019-05-13T04:06:34.572Z,-131
2019-05-13T04:07:04.666Z,-126
2019-05-13T04:07:34.625Z,-144
2019-05-13T04:08:04.900Z,-147
2019-05-13T04:08:34.762Z,-144
2019-05-13T04:09:20.421Z,-132
2019-05-13T04:09:36.217Z,-126
2019-05-13T04:10:04.881Z,-126
2019-05-13T04:10:34.901Z,-125
2019-05-13T04:11:04.817Z,-125
2019-05-13T04:11:34.692Z,-123
2019-05-13T04:12:04.729Z,-123
2019-05-13T04:12:34.985Z,-125
2019-05-13T04:12:35.028Z,-122
2019-05-13T04:15:35.049Z,-122
2019-05-13T04:16:35.035Z,-117
2019-05-13T04:17:05.094Z,-115
2019-05-13T04:17:35.066Z,-114
2019-05-13T04:18:05.128Z,-114
2019-05-13T04:19:05.037Z,-113
2019-05-13T04:21:05.041Z,-112
2019-05-13T04:21:35.037Z,-114
2019-05-13T04:22:05.051Z,-114
2019-05-13T04:23:05.029Z,-112
2019-05-13T04:23:35.060Z,-115
2019-05-13T04:24:05.046Z,-113
2019-05-13T04:24:35.096Z,-148
2019-05-13T04:25:05.095Z,-155
2019-05-13T04:25:39.280Z,-135
2019-05-13T04:26:05.049Z,-127
2019-05-13T04:26:35.238Z,-119
2019-05-13T04:27:05.341Z,-119
2019-05-13T04:27:35.119Z,-113
2019-05-13T04:28:05.162Z,-113
2019-05-13T04:28:35.211Z,-113
2019-05-13T04:29:05.187Z,-113
2019-05-13T04:29:35.401Z,-108
2019-05-13T04:30:05.321Z,-108
2019-05-13T04:30:35.331Z,-115
2019-05-13T04:31:05.363Z,-115
2019-05-13T04:31:35.297Z,-110
2019-05-13T04:32:05.305Z,-115
2019-05-13T04:32:35.193Z,-115
2019-05-13T04:33:05.210Z,-120
2019-05-13T04:33:35.484Z,-120
2019-05-13T04:34:05.475Z,-107
2019-05-13T04:34:35.449Z,-107
2019-05-13T04:35:05.644Z,-104
2019-05-13T04:35:35.482Z,-110
2019-05-13T04:36:05.395Z,-104
2019-05-13T04:36:35.305Z,-109
2019-05-13T04:37:05.302Z,-109
2019-05-13T04:37:35.461Z,-99
2019-05-13T04:38:09.071Z,-110
2019-05-13T04:38:35.713Z,-110
2019-05-13T04:39:05.555Z,-105
2019-05-13T04:39:44.952Z,-100
2019-05-13T04:40:05.508Z,-99
2019-05-13T04:40:35.396Z,-97
2019-05-13T04:41:05.423Z,-139
2019-05-13T04:41:35.517Z,-142
2019-05-13T04:42:05.497Z,-124
2019-05-13T04:42:35.546Z,-114
2019-05-13T04:43:05.597Z,-106
2019-05-13T04:43:35.534Z,-105
2019-05-13T04:44:05.521Z,-104
2019-05-13T04:44:35.547Z,-106
2019-05-13T04:45:05.646Z,-108
2019-05-13T04:45:35.478Z,-106
2019-05-13T04:46:05.519Z,-102
2019-05-13T04:46:35.529Z,-103
2019-05-13T04:47:05.578Z,-103
2019-05-13T04:47:35.762Z,-103
2019-05-13T04:48:05.626Z,-108
2019-05-13T04:48:39.372Z,-102
2019-05-13T04:49:05.665Z,-102
2019-05-13T04:49:35.634Z,-101
2019-05-13T04:50:05.613Z,-101
2019-05-13T04:50:35.777Z,-98
2019-05-13T04:51:05.882Z,-102
2019-05-13T04:51:36.008Z,-102
2019-05-13T04:52:05.989Z,-96
2019-05-13T04:52:36.175Z,-93
2019-05-13T04:53:05.903Z,-92
2019-05-13T04:53:35.788Z,-96
2019-05-13T04:54:05.932Z,-95
2019-05-13T04:54:35.864Z,-90
2019-05-13T04:55:06.217Z,-88
2019-05-13T04:55:36.015Z,-89
2019-05-13T04:56:06.036Z,-93
2019-05-13T04:56:36.123Z,-88
2019-05-13T04:57:06.061Z,-86
2019-05-13T04:57:35.996Z,-82
2019-05-13T04:58:06.007Z,-78
2019-05-13T04:58:35.970Z,-149
2019-05-13T04:59:06.365Z,-124
2019-05-13T04:59:40.210Z,-102
2019-05-13T05:00:06.331Z,-87
2019-05-13T05:00:36.323Z,-78
2019-05-13T05:01:08.591Z,-73
2019-05-13T05:01:40.042Z,-71
2019-05-13T05:02:06.203Z,-68
2019-05-13T05:02:39.741Z,-67
2019-05-13T05:03:06.218Z,-70
2019-05-13T05:03:41.967Z,-67
2019-05-13T05:04:11.251Z,-68
2019-05-13T05:04:36.312Z,-66
2019-05-13T05:05:06.234Z,-67
2019-05-13T05:05:36.238Z,-62
2019-05-13T05:06:06.165Z,-61
2019-05-13T05:06:36.350Z,-64
2019-05-13T05:07:06.207Z,-61
2019-05-13T05:07:36.270Z,-58
2019-05-13T05:08:06.338Z,-58
2019-05-13T05:08:36.227Z,-82
2019-05-13T05:09:06.478Z,-72
2019-05-13T05:09:40.148Z,-63
2019-05-13T05:10:23.183Z,-63
2019-05-13T05:10:38.744Z,-65
2019-05-13T05:11:06.342Z,-62
2019-05-13T05:11:36.596Z,-61
2019-05-13T05:12:06.541Z,-68
2019-05-13T05:12:36.538Z,-65
2019-05-13T05:13:06.442Z,-65
2019-05-13T05:13:36.687Z,-65
2019-05-13T05:14:06.554Z,-65
2019-05-13T05:14:36.440Z,-68
2019-05-13T05:15:06.494Z,-68
2019-05-13T05:15:36.525Z,-136
2019-05-13T05:16:06.730Z,-123
2019-05-13T05:16:38.935Z,-125
2019-05-13T05:17:06.686Z,-85
2019-05-13T05:17:36.761Z,-82
2019-05-13T05:18:06.496Z,-84
2019-05-13T05:18:36.577Z,-83
2019-05-13T05:19:06.612Z,-98
2019-05-13T05:19:36.632Z,-99
2019-05-13T05:20:06.747Z,-88
2019-05-13T05:20:36.819Z,-91
2019-05-13T05:21:06.882Z,-99
2019-05-13T05:21:36.759Z,-96
2019-05-13T05:22:06.898Z,-95
2019-05-13T05:22:36.660Z,-95
2019-05-13T05:23:06.695Z,-94
2019-05-13T05:23:36.730Z,-87
2019-05-13T05:24:06.804Z,-85
2019-05-13T05:24:36.705Z,-91
2019-05-13T05:25:06.690Z,-85
2019-05-13T05:25:36.709Z,-80
2019-05-13T05:26:06.722Z,-87
2019-05-13T05:26:36.827Z,-84
2019-05-13T05:27:06.718Z,-81
2019-05-13T05:27:36.757Z,-75
2019-05-13T05:28:06.736Z,-73
2019-05-13T05:28:36.783Z,-70
2019-05-13T05:29:06.764Z,-68
2019-05-13T05:29:36.784Z,-70
2019-05-13T05:30:06.939Z,-67
2019-05-13T05:30:36.884Z,-65
2019-05-13T05:31:06.892Z,-80
2019-05-13T05:31:36.848Z,-81
2019-05-13T05:32:06.972Z,-75
2019-05-13T05:32:36.848Z,-142
2019-05-13T05:33:06.965Z,-149
2019-05-13T05:33:37.055Z,-92
2019-05-13T05:34:07.100Z,-69
2019-05-13T05:34:37.111Z,-66
2019-05-13T05:35:07.359Z,-67
2019-05-13T05:35:36.975Z,-72
2019-05-13T05:36:06.979Z,-69
2019-05-13T05:36:37.021Z,-71
2019-05-13T05:37:06.993Z,-73
2019-05-13T05:37:37.410Z,-70
2019-05-13T05:38:07.165Z,-77
2019-05-13T05:38:37.207Z,-75
2019-05-13T05:39:07.310Z,-79
2019-05-13T05:39:37.291Z,-82
2019-05-13T05:40:07.301Z,-87
2019-05-13T05:40:37.158Z,-87
2019-05-13T05:41:07.084Z,-87
2019-05-13T05:41:37.256Z,-90
2019-05-13T05:42:07.256Z,-91
2019-05-13T05:42:37.398Z,-83
2019-05-13T05:43:07.558Z,-85
2019-05-13T05:43:37.346Z,-87
2019-05-13T05:44:07.295Z,-101
2019-05-13T05:44:37.245Z,-91
2019-05-13T05:45:07.258Z,-94
2019-05-13T05:45:37.297Z,-100
2019-05-13T05:46:07.353Z,-96
2019-05-13T05:46:37.265Z,-88
2019-05-13T05:47:07.346Z,-83
2019-05-13T05:47:37.303Z,-86
2019-05-13T05:48:07.221Z,-85
2019-05-13T05:48:37.465Z,-84
2019-05-13T05:49:07.306Z,-76
2019-05-13T05:49:37.391Z,-135
2019-05-13T05:50:07.513Z,-136
2019-05-13T05:50:37.452Z,-115
2019-05-13T05:51:07.480Z,-67
2019-05-13T05:51:37.464Z,-65
2019-05-13T05:52:07.461Z,-66
2019-05-13T05:52:37.491Z,-64
2019-05-13T05:53:07.455Z,-61
2019-05-13T05:53:37.390Z,-64
2019-05-13T05:54:07.491Z,-55
2019-05-13T05:54:37.386Z,-57
2019-05-13T05:55:07.556Z,-52
2019-05-13T05:55:37.523Z,-77
2019-05-13T05:56:07.682Z,-77
2019-05-13T05:56:37.701Z,-68
2019-05-13T05:57:07.618Z,-58
2019-05-13T05:57:37.506Z,-56
2019-05-13T05:58:07.466Z,-57
2019-05-13T05:58:37.474Z,-54
2019-05-13T05:59:07.809Z,-51
2019-05-13T06:00:07.694Z,-46
2019-05-13T06:00:37.779Z,-40
2019-05-13T06:01:07.874Z,-38
2019-05-13T06:01:37.679Z,-36
2019-05-13T06:02:07.645Z,-34
2019-05-13T06:02:37.655Z,-32
2019-05-13T06:03:07.767Z,-29
2019-05-13T06:03:37.814Z,-29
2019-05-13T06:04:07.902Z,-26
2019-05-13T06:04:37.959Z,-17
2019-05-13T06:05:08.094Z,-18
2019-05-13T06:05:37.765Z,-12
2019-05-13T06:06:07.743Z,-150
2019-05-13T06:06:37.801Z,-117
2019-05-13T06:07:07.839Z,-70
2019-05-13T06:07:37.761Z,-40
2019-05-13T06:08:07.774Z,-46
2019-05-13T06:08:37.834Z,-1
2019-05-13T06:09:07.864Z,-2
2019-05-13T06:09:37.843Z,-18
2019-05-13T06:10:07.854Z,-13
2019-05-13T06:10:47.187Z,-8
2019-05-13T06:11:07.847Z,2
2019-05-13T06:11:37.973Z,1
2019-05-13T06:12:07.850Z,2
2019-05-13T06:12:37.896Z,1
2019-05-13T06:13:08.023Z,-3
2019-05-13T06:13:37.953Z,1
2019-05-13T06:14:08.079Z,3
2019-05-13T06:14:37.973Z,-2
2019-05-13T06:15:08.049Z,6
2019-05-13T06:16:07.899Z,7
2019-05-13T06:16:38.206Z,2
2019-05-13T06:17:08.112Z,0
2019-05-13T06:17:38.291Z,8
2019-05-13T06:18:08.251Z,-1
2019-05-13T06:18:38.454Z,1
2019-05-13T06:19:08.092Z,1
2019-05-13T06:19:38.061Z,0
2019-05-13T06:20:08.139Z,-6
2019-05-13T06:20:38.310Z,-11
2019-05-13T06:21:08.451Z,-11
2019-05-13T06:21:38.445Z,-14
2019-05-13T06:22:08.384Z,-12
2019-05-13T06:22:38.531Z,-15
2019-05-13T06:23:08.391Z,-36
2019-05-13T06:23:38.413Z,-135
2019-05-13T06:24:08.372Z,-120
2019-05-13T06:24:38.312Z,-84
2019-05-13T06:25:08.686Z,-14
2019-05-13T06:25:38.496Z,-6
2019-05-13T06:26:08.601Z,-3
2019-05-13T06:26:38.683Z,-3
2019-05-13T06:27:08.647Z,-2
2019-05-13T06:27:38.525Z,2
2019-05-13T06:28:08.624Z,3
2019-05-13T06:28:38.478Z,4
2019-05-13T06:29:08.521Z,6
2019-05-13T06:29:38.505Z,9
2019-05-13T06:30:08.628Z,9
2019-05-13T06:30:38.520Z,-25
2019-05-13T06:31:08.565Z,-83
2019-05-13T06:31:38.532Z,-81
2019-05-13T06:32:18.788Z,-106
2019-05-13T06:32:38.644Z,-115
2019-05-13T06:33:08.658Z,-191
2019-05-13T06:33:38.595Z,-97
2019-05-13T06:34:08.642Z,-109
2019-05-13T06:34:38.756Z,-152
2019-05-13T06:35:11.202Z,-139
2019-05-13T06:35:41.573Z,-155
2019-05-13T06:36:08.770Z,-166
2019-05-13T06:36:38.683Z,-155
2019-05-13T06:37:11.176Z,-140
2019-05-13T06:37:41.274Z,-119
2019-05-13T06:38:08.951Z,-110
2019-05-13T06:38:38.995Z,-108
2019-05-13T06:39:08.991Z,-96
2019-05-13T06:39:39.090Z,-98
2019-05-13T06:40:08.880Z,-98
2019-05-13T06:40:38.796Z,-235
2019-05-13T06:41:12.111Z,-187
2019-05-13T06:41:41.424Z,-145
2019-05-13T06:42:11.435Z,-147
2019-05-13T06:42:41.490Z,-102
2019-05-13T06:43:11.745Z,-112
2019-05-13T06:43:39.053Z,-107
2019-05-13T06:44:38.959Z,-81
2019-05-13T06:45:08.983Z,-81
2019-05-13T06:45:39.020Z,-76
2019-05-13T06:46:09.165Z,-92
2019-05-13T06:46:39.121Z,-91
2019-05-13T06:47:11.319Z,-92
2019-05-13T06:47:41.274Z,-92
2019-05-13T06:48:11.688Z,-99
2019-05-13T06:48:41.276Z,-96
2019-05-13T06:49:09.035Z,-95
2019-05-13T06:49:39.047Z,-92
2019-05-13T06:50:11.591Z,-96
2019-05-13T06:50:41.353Z,-92
2019-05-13T06:51:11.487Z,-110
2019-05-13T06:51:41.245Z,-106
2019-05-13T06:52:09.124Z,-117
2019-05-13T06:52:39.135Z,-113
2019-05-13T06:53:09.050Z,-110
2019-05-13T06:53:41.382Z,-92
2019-05-13T06:54:11.234Z,-95
2019-05-13T06:54:41.526Z,-81
2019-05-13T06:55:11.282Z,-73
2019-05-13T06:55:41.141Z,-72
2019-05-13T06:56:09.194Z,-66
2019-05-13T06:56:39.347Z,-85
2019-05-13T06:57:13.082Z,-310
2019-05-13T06:57:39.198Z,-310
2019-05-13T06:58:11.377Z,-261
2019-05-13T06:58:41.241Z,-181
2019-05-13T06:59:11.624Z,-79
2019-05-13T06:59:41.767Z,-82
2019-05-13T07:00:11.905Z,-82
2019-05-13T07:00:39.444Z,-82
2019-05-13T07:01:11.519Z,-86
2019-05-13T07:01:39.392Z,-84
2019-05-13T07:02:09.295Z,-87
2019-05-13T07:02:39.366Z,-103
2019-05-13T07:03:09.397Z,-108
2019-05-13T07:03:41.705Z,120
2019-05-13T07:04:11.601Z,-71
2019-05-13T07:04:41.515Z,-72
2019-05-13T07:05:11.729Z,-66
2019-05-13T07:06:12.084Z,-66
2019-05-13T07:06:41.748Z,-64
2019-05-13T07:07:12.950Z,-62
2019-05-13T07:07:39.634Z,-71
2019-05-13T07:08:11.690Z,-44
2019-05-13T07:08:41.653Z,-34
2019-05-13T07:09:11.928Z,-27
2019-05-13T07:09:42.342Z,-41
2019-05-13T07:10:12.381Z,-29
2019-05-13T07:10:41.388Z,-22
2019-05-13T07:11:18.275Z,-27
2019-05-13T07:11:41.581Z,-18
2019-05-13T07:12:11.311Z,-13
2019-05-13T07:12:41.140Z,-18
2019-05-13T07:13:11.347Z,-16
2019-05-13T07:13:41.683Z,-23
2019-05-13T07:14:11.900Z,-26
2019-05-13T07:14:41.272Z,-26
2019-05-13T07:15:11.526Z,-50
2019-05-13T07:15:41.597Z,-17
2019-05-13T07:16:11.834Z,-4
2019-05-13T07:16:41.874Z,-20
2019-05-13T07:17:12.096Z,-43
2019-05-13T07:17:41.515Z,-41
2019-05-13T07:18:11.666Z,-52
2019-05-13T07:18:41.494Z,-48
2019-05-13T07:19:11.675Z,-49
2019-05-13T07:19:41.390Z,-53
2019-05-13T07:20:11.544Z,-62
2019-05-13T07:20:42.300Z,-72
2019-05-13T07:21:11.843Z,-59
2019-05-13T07:21:41.678Z,-61
2019-05-13T07:22:11.517Z,-64
2019-05-13T07:22:42.008Z,-65
2019-05-13T07:23:12.091Z,-65
2019-05-13T07:23:42.181Z,-77
2019-05-13T07:24:12.346Z,-77
2019-05-13T07:24:41.305Z,-83
2019-05-13T07:25:11.379Z,-32